createdAt,value
2018-04-24T00:00:12.668Z,90.4
2018-04-24T00:01:14.417Z,90.5
2018-04-24T00:02:16.080Z,89.8
2018-04-24T00:03:17.828Z,89.8
2018-04-24T00:04:19.532Z,89.6
2018-04-24T00:05:21.274Z,89.8
2018-04-24T00:06:22.964Z,89.5
2018-04-24T00:07:24.647Z,89.5
2018-04-24T00:08:26.356Z,89.9
2018-04-24T00:09:28.169Z,89.5
2018-04-24T00:10:29.835Z,89.4
2018-04-24T00:11:31.554Z,88.9
2018-04-24T00:12:33.215Z,89.4
2018-04-24T00:13:34.992Z,89.5
2018-04-24T00:14:36.703Z,89.5
2018-04-24T00:15:38.357Z,89.5
2018-04-24T00:16:40.159Z,89.6
2018-04-24T00:17:41.851Z,89.5
2018-04-24T00:18:43.688Z,89.3
2018-04-24T00:19:45.430Z,89.6
2018-04-24T00:20:47.087Z,88.9
2018-04-24T00:21:48.831Z,89.3
2018-04-24T00:22:50.552Z,89.6
2018-04-24T00:23:52.424Z,89.3
2018-04-24T00:24:54.126Z,89.3
2018-04-24T00:25:55.848Z,89.4
2018-04-24T00:26:57.482Z,89.7
2018-04-24T00:27:59.331Z,89.6
2018-04-24T00:29:01.055Z,89.5
2018-04-24T00:30:02.786Z,89.8
2018-04-24T00:31:04.570Z,89.8
2018-04-24T00:32:06.400Z,89.6
2018-04-24T00:33:08.145Z,89.8
2018-04-24T00:34:09.881Z,89.9
2018-04-24T00:35:11.589Z,89.8
2018-04-24T00:36:13.367Z,89.5
2018-04-24T00:37:15.025Z,89.3
2018-04-24T00:38:16.750Z,89.4
2018-04-24T00:39:18.428Z,89.3
2018-04-24T00:40:20.161Z,89.0
2018-04-24T00:41:21.843Z,89.5
2018-04-24T00:42:23.612Z,89.4
2018-04-24T00:43:25.365Z,89.4
2018-04-24T00:44:27.120Z,90.1
2018-04-24T00:45:28.804Z,90.0
2018-04-24T00:46:30.718Z,89.6
2018-04-24T00:47:32.464Z,89.5
2018-04-24T00:48:34.164Z,89.5
2018-04-24T00:49:35.878Z,89.3
2018-04-24T00:50:37.697Z,90.0
2018-04-24T00:51:39.304Z,89.5
2018-04-24T00:52:41.056Z,89.5
2018-04-24T00:53:42.844Z,89.1
2018-04-24T00:54:44.714Z,89.3
2018-04-24T00:55:46.403Z,89.2
2018-04-24T00:56:48.229Z,89.4
2018-04-24T00:57:49.992Z,89.3
2018-04-24T00:58:51.861Z,89.0
2018-04-24T00:59:53.584Z,89.5
2018-04-24T01:00:55.227Z,89.3
2018-04-24T01:01:56.946Z,89.3
2018-04-24T01:02:58.693Z,89.3
2018-04-24T01:04:00.377Z,89.5
2018-04-24T01:05:02.130Z,89.3
2018-04-24T01:06:03.921Z,88.2
2018-04-24T01:07:05.831Z,88.2
2018-04-24T01:08:07.608Z,87.9
2018-04-24T01:09:09.255Z,87.7
2018-04-24T01:10:10.892Z,87.3
2018-04-24T01:11:12.520Z,87.2
2018-04-24T01:12:14.198Z,87.0
2018-04-24T01:13:15.990Z,86.7
2018-04-24T01:14:17.641Z,87.2
2018-04-24T01:15:19.584Z,86.9
2018-04-24T01:16:21.426Z,87.1
2018-04-24T01:17:23.074Z,86.9
2018-04-24T01:18:24.847Z,87.0
2018-04-24T01:19:26.510Z,87.2
2018-04-24T01:20:28.237Z,86.9
2018-04-24T01:21:30.064Z,87.0
2018-04-24T01:22:31.805Z,87.0
2018-04-24T01:23:33.469Z,87.5
2018-04-24T01:24:35.526Z,87.4
2018-04-24T01:25:37.240Z,87.2
2018-04-24T01:26:39.029Z,87.8
2018-04-24T01:27:40.776Z,87.5
2018-04-24T01:28:42.577Z,88.3
2018-04-24T01:29:44.363Z,88.4
2018-04-24T01:30:46.007Z,88.8
2018-04-24T01:31:47.803Z,88.8
2018-04-24T01:32:49.563Z,89.1
2018-04-24T01:33:51.250Z,88.2
2018-04-24T01:34:53.101Z,88.8
2018-04-24T01:35:54.699Z,88.6
2018-04-24T01:36:56.397Z,89.5
2018-04-24T01:37:58.116Z,89.0
2018-04-24T01:38:59.852Z,89.3
2018-04-24T01:40:01.513Z,89.5
2018-04-24T01:41:03.445Z,89.3
2018-04-24T01:42:05.074Z,89.3
2018-04-24T01:43:06.809Z,89.4
2018-04-24T01:44:08.727Z,88.6
2018-04-24T01:45:10.452Z,88.3
2018-04-24T01:46:12.124Z,89.3
2018-04-24T01:47:13.973Z,89.4
2018-04-24T01:48:16.019Z,88.8
2018-04-24T01:49:17.720Z,88.9
2018-04-24T01:50:19.422Z,88.6
2018-04-24T01:51:21.081Z,88.5
2018-04-24T01:52:22.849Z,88.6
2018-04-24T01:53:24.506Z,88.7
2018-04-24T01:54:26.208Z,88.5
2018-04-24T01:55:27.896Z,88.2
2018-04-24T01:56:29.650Z,88.0
2018-04-24T01:57:31.338Z,88.2
2018-04-24T01:58:33.088Z,87.8
2018-04-24T01:59:34.768Z,88.5
2018-04-24T02:00:36.483Z,88.7
2018-04-24T02:01:38.174Z,88.1
2018-04-24T02:02:39.971Z,88.4
2018-04-24T02:03:41.945Z,88.0
2018-04-24T02:04:43.677Z,88.1
2018-04-24T02:05:46.007Z,88.1
2018-04-24T02:06:47.738Z,88.1
2018-04-24T02:07:49.452Z,88.2
2018-04-24T02:08:51.159Z,88.0
2018-04-24T02:09:52.927Z,88.2
2018-04-24T02:10:54.657Z,88.3
2018-04-24T02:11:56.401Z,88.4
2018-04-24T02:12:58.175Z,88.0
2018-04-24T02:13:59.917Z,88.7
2018-04-24T02:15:01.618Z,88.7
2018-04-24T02:16:03.327Z,88.5
2018-04-24T02:17:05.021Z,88.2
2018-04-24T02:18:06.780Z,88.4
2018-04-24T02:19:08.551Z,88.3
2018-04-24T02:20:10.399Z,88.1
2018-04-24T02:21:12.102Z,88.5
2018-04-24T02:22:13.794Z,88.5
2018-04-24T02:23:15.531Z,88.1
2018-04-24T02:24:17.370Z,88.9
2018-04-24T02:25:19.032Z,88.6
2018-04-24T02:26:21.046Z,88.7
2018-04-24T02:27:22.788Z,88.7
2018-04-24T02:28:24.526Z,88.5
2018-04-24T02:29:26.245Z,88.6
2018-04-24T02:30:27.992Z,88.5
2018-04-24T02:31:29.688Z,88.5
2018-04-24T02:32:31.471Z,88.5
2018-04-24T02:33:33.247Z,88.4
2018-04-24T02:34:34.919Z,87.6
2018-04-24T02:35:36.645Z,88.1
2018-04-24T02:36:38.531Z,88.1
2018-04-24T02:37:40.339Z,87.8
2018-04-24T02:38:42.007Z,87.7
2018-04-24T02:39:43.712Z,87.4
2018-04-24T02:40:45.423Z,87.7
2018-04-24T02:41:47.575Z,87.5
2018-04-24T02:42:49.254Z,87.5
2018-04-24T02:43:51.200Z,87.8
2018-04-24T02:44:52.980Z,87.7
2018-04-24T02:45:54.686Z,87.5
2018-04-24T02:46:56.401Z,88.1
2018-04-24T02:47:58.323Z,88.1
2018-04-24T02:48:59.954Z,87.3
2018-04-24T02:50:01.626Z,87.0
2018-04-24T02:51:03.322Z,87.2
2018-04-24T02:52:05.174Z,86.8
2018-04-24T02:53:06.903Z,87.1
2018-04-24T02:54:08.754Z,86.6
2018-04-24T02:55:10.476Z,86.6
2018-04-24T02:56:12.142Z,86.8
2018-04-24T02:57:13.922Z,86.2
2018-04-24T02:58:15.627Z,86.6
2018-04-24T02:59:17.319Z,86.6
2018-04-24T03:00:19.056Z,86.4
2018-04-24T03:01:21.055Z,86.5
2018-04-24T03:02:22.881Z,86.6
2018-04-24T03:03:24.669Z,86.6
2018-04-24T03:04:26.481Z,86.0
2018-04-24T03:05:28.392Z,85.8
2018-04-24T03:06:30.183Z,86.1
2018-04-24T03:07:31.979Z,86.0
2018-04-24T03:08:33.680Z,85.6
2018-04-24T03:09:35.459Z,85.8
2018-04-24T03:10:37.311Z,85.7
2018-04-24T03:11:38.985Z,85.8
2018-04-24T03:12:40.643Z,85.8
2018-04-24T03:13:42.366Z,85.6
2018-04-24T03:14:44.197Z,86.0
2018-04-24T03:15:45.935Z,86.0
2018-04-24T03:16:47.698Z,85.8
2018-04-24T03:17:49.451Z,85.7
2018-04-24T03:18:51.138Z,86.0
2018-04-24T03:19:52.854Z,85.8
2018-04-24T03:20:54.640Z,85.7
2018-04-24T03:21:56.382Z,85.6
2018-04-24T03:22:58.100Z,85.8
2018-04-24T03:23:59.758Z,85.5
2018-04-24T03:25:01.526Z,85.6
2018-04-24T03:26:03.198Z,85.0
2018-04-24T03:27:04.853Z,85.3
2018-04-24T03:28:06.769Z,85.3
2018-04-24T03:29:08.547Z,85.2
2018-04-24T03:30:10.322Z,85.4
2018-04-24T03:31:11.991Z,84.8
2018-04-24T03:32:13.846Z,85.2
2018-04-24T03:33:15.567Z,85.4
2018-04-24T03:34:17.326Z,85.4
2018-04-24T03:35:19.153Z,85.7
2018-04-24T03:36:20.979Z,85.2
2018-04-24T03:37:22.815Z,85.4
2018-04-24T03:38:24.570Z,85.4
2018-04-24T03:39:26.497Z,85.6
2018-04-24T03:40:28.217Z,85.0
2018-04-24T03:41:29.933Z,85.0
2018-04-24T03:42:32.164Z,85.1
2018-04-24T03:43:33.895Z,85.0
2018-04-24T03:44:35.687Z,85.0
2018-04-24T03:45:37.570Z,85.3
2018-04-24T03:46:39.385Z,85.0
2018-04-24T03:47:41.196Z,85.1
2018-04-24T03:48:42.928Z,85.2
2018-04-24T03:49:44.718Z,85.2
2018-04-24T03:50:46.483Z,85.2
2018-04-24T03:51:48.249Z,85.4
2018-04-24T03:52:50.036Z,84.8
2018-04-24T03:53:51.963Z,85.2
2018-04-24T03:54:53.832Z,85.4
2018-04-24T03:55:55.625Z,85.6
2018-04-24T03:56:57.377Z,86.2
2018-04-24T03:57:59.097Z,85.5
2018-04-24T03:59:00.788Z,85.9
2018-04-24T04:00:02.592Z,85.5
2018-04-24T04:01:04.486Z,85.7
2018-04-24T04:02:06.265Z,85.6
2018-04-24T04:03:07.912Z,85.8
2018-04-24T04:04:09.602Z,85.7
2018-04-24T04:05:11.397Z,85.4
2018-04-24T04:06:13.243Z,86.2
2018-04-24T04:07:14.863Z,86.8
2018-04-24T04:08:16.666Z,86.6
2018-04-24T04:09:18.336Z,86.5
2018-04-24T04:10:19.992Z,87.1
2018-04-24T04:11:21.754Z,86.3
2018-04-24T04:12:23.861Z,86.6
2018-04-24T04:13:25.628Z,87.1
2018-04-24T04:14:27.292Z,86.6
2018-04-24T04:15:29.044Z,86.4
2018-04-24T04:16:30.812Z,86.5
2018-04-24T04:17:32.690Z,86.8
2018-04-24T04:18:34.410Z,87.1
2018-04-24T04:19:36.240Z,86.8
2018-04-24T04:20:37.962Z,87.3
2018-04-24T04:21:39.670Z,86.7
2018-04-24T04:22:41.754Z,86.8
2018-04-24T04:23:43.456Z,87.0
2018-04-24T04:24:45.213Z,86.9
2018-04-24T04:25:46.877Z,86.8
2018-04-24T04:26:48.612Z,86.7
2018-04-24T04:27:50.508Z,86.8
2018-04-24T04:28:52.211Z,86.9
2018-04-24T04:29:54.245Z,87.2
2018-04-24T04:30:55.946Z,87.2
2018-04-24T04:31:57.678Z,86.9
2018-04-24T04:32:59.384Z,86.7
2018-04-24T04:34:01.036Z,86.9
2018-04-24T04:35:02.827Z,87.1
2018-04-24T04:36:04.662Z,86.9
2018-04-24T04:37:06.433Z,86.9
2018-04-24T04:38:08.358Z,86.4
2018-04-24T04:39:10.399Z,86.4
2018-04-24T04:40:12.123Z,86.0
2018-04-24T04:41:13.767Z,86.0
2018-04-24T04:42:15.434Z,86.3
2018-04-24T04:43:17.190Z,86.7
2018-04-24T04:44:18.946Z,85.8
2018-04-24T04:45:20.687Z,85.6
2018-04-24T04:46:22.669Z,85.1
2018-04-24T04:47:24.398Z,85.2
2018-04-24T04:48:26.243Z,85.0
2018-04-24T04:49:28.010Z,85.2
2018-04-24T04:50:29.816Z,84.8
2018-04-24T04:51:31.506Z,84.6
2018-04-24T04:52:33.159Z,84.4
2018-04-24T04:53:34.844Z,84.8
2018-04-24T04:54:36.729Z,84.6
2018-04-24T04:55:38.430Z,84.4
2018-04-24T04:56:40.115Z,84.2
2018-04-24T04:57:41.756Z,84.2
2018-04-24T04:58:43.416Z,84.6
2018-04-24T04:59:45.217Z,83.9
2018-04-24T05:00:47.206Z,83.7
2018-04-24T05:01:48.890Z,83.3
2018-04-24T05:02:50.626Z,83.0
2018-04-24T05:03:52.371Z,83.1
2018-04-24T05:04:54.152Z,82.9
2018-04-24T05:05:55.844Z,83.0
2018-04-24T05:06:57.585Z,83.5
2018-04-24T05:07:59.458Z,83.3
2018-04-24T05:09:01.299Z,83.1
2018-04-24T05:10:03.021Z,83.2
2018-04-24T05:11:04.738Z,84.3
2018-04-24T05:12:06.491Z,83.8
2018-04-24T05:13:08.235Z,83.5
2018-04-24T05:14:09.938Z,83.0
2018-04-24T05:15:11.615Z,83.5
2018-04-24T05:16:13.276Z,84.0
2018-04-24T05:17:15.181Z,84.0
2018-04-24T05:18:16.938Z,83.7
2018-04-24T05:19:18.645Z,84.9
2018-04-24T05:20:20.392Z,84.0
2018-04-24T05:21:22.087Z,83.6
2018-04-24T05:22:23.849Z,83.4
2018-04-24T05:23:25.593Z,83.3
2018-04-24T05:24:27.246Z,82.3
2018-04-24T05:25:29.000Z,82.7
2018-04-24T05:26:30.726Z,82.4
2018-04-24T05:27:32.337Z,83.1
2018-04-24T05:28:34.047Z,83.5
2018-04-24T05:29:35.696Z,82.9
2018-04-24T05:30:37.341Z,82.2
2018-04-24T05:31:39.031Z,81.8
2018-04-24T05:32:40.766Z,82.5
2018-04-24T05:33:42.545Z,82.7
2018-04-24T05:34:44.262Z,82.4
2018-04-24T05:35:45.844Z,81.8
2018-04-24T05:36:47.301Z,81.2
2018-04-24T05:37:48.753Z,81.2
2018-04-24T05:38:50.223Z,81.5
2018-04-24T05:39:51.669Z,82.1
2018-04-24T05:40:53.191Z,81.3
2018-04-24T05:41:54.696Z,81.7
2018-04-24T05:42:56.195Z,81.3
2018-04-24T05:43:57.609Z,81.2
2018-04-24T05:44:59.137Z,80.8
2018-04-24T05:46:00.551Z,81.6
2018-04-24T05:47:02.155Z,81.8
2018-04-24T05:48:03.950Z,81.2
2018-04-24T05:49:05.625Z,81.0
2018-04-24T05:50:07.302Z,81.2
2018-04-24T05:51:08.988Z,81.3
2018-04-24T05:52:10.621Z,81.8
2018-04-24T05:53:12.270Z,81.9
2018-04-24T05:54:13.968Z,81.4
2018-04-24T05:55:15.671Z,81.4
2018-04-24T05:56:17.322Z,81.3
2018-04-24T05:57:19.016Z,80.9
2018-04-24T05:58:20.714Z,81.2
2018-04-24T05:59:22.331Z,81.9
2018-04-24T06:00:24.151Z,81.8
2018-04-24T06:01:26.013Z,81.5
2018-04-24T06:02:27.737Z,81.6
2018-04-24T06:03:29.475Z,81.2
2018-04-24T06:04:31.154Z,81.2
2018-04-24T06:05:32.934Z,81.1
2018-04-24T06:06:34.667Z,81.3
2018-04-24T06:07:36.346Z,81.7
2018-04-24T06:08:38.080Z,81.1
2018-04-24T06:09:39.722Z,80.0
2018-04-24T06:10:41.302Z,79.3
2018-04-24T06:11:42.750Z,79.4
2018-04-24T06:12:44.429Z,78.9
2018-04-24T06:13:46.096Z,78.5
2018-04-24T06:14:47.780Z,77.9
2018-04-24T06:15:49.417Z,77.5
2018-04-24T06:16:51.095Z,77.6
2018-04-24T06:17:52.799Z,77.1
2018-04-24T06:18:54.494Z,76.6
2018-04-24T06:19:56.111Z,75.8
2018-04-24T06:20:57.833Z,75.9
2018-04-24T06:21:59.525Z,75.4
2018-04-24T06:23:01.201Z,74.6
2018-04-24T06:24:02.910Z,74.4
2018-04-24T06:25:04.532Z,74.5
2018-04-24T06:26:06.060Z,73.9
2018-04-24T06:27:07.565Z,74.0
2018-04-24T06:28:09.189Z,74.9
2018-04-24T06:29:10.870Z,73.2
2018-04-24T06:30:12.492Z,73.8
2018-04-24T06:31:14.213Z,74.7
2018-04-24T06:32:15.858Z,74.7
2018-04-24T06:33:17.539Z,75.7
2018-04-24T06:34:19.151Z,75.2
2018-04-24T06:35:20.837Z,73.9
2018-04-24T06:36:22.545Z,74.7
2018-04-24T06:37:24.221Z,74.5
2018-04-24T06:38:25.906Z,74.6
2018-04-24T06:39:27.573Z,74.6
2018-04-24T06:40:29.242Z,74.9
2018-04-24T06:41:30.898Z,74.3
2018-04-24T06:42:32.592Z,73.8
2018-04-24T06:43:34.215Z,74.0
2018-04-24T06:44:35.967Z,73.7
2018-04-24T06:45:37.625Z,74.5
2018-04-24T06:46:39.275Z,74.9
2018-04-24T06:47:41.002Z,76.1
2018-04-24T06:48:42.673Z,76.0
2018-04-24T06:49:44.393Z,76.6
2018-04-24T06:50:46.102Z,76.3
2018-04-24T06:51:47.759Z,76.9
2018-04-24T06:52:49.423Z,77.1
2018-04-24T06:53:51.104Z,76.7
2018-04-24T06:54:52.777Z,77.2
2018-04-24T06:55:54.457Z,76.4
2018-04-24T06:56:55.920Z,76.6
2018-04-24T06:57:57.391Z,76.8
2018-04-24T06:58:58.877Z,76.7
2018-04-24T07:00:00.324Z,76.9
2018-04-24T07:01:01.869Z,76.3
2018-04-24T07:02:03.442Z,76.1
2018-04-24T07:03:05.115Z,76.3
2018-04-24T07:04:06.981Z,76.6
2018-04-24T07:05:08.690Z,76.6
2018-04-24T07:06:10.205Z,76.2
2018-04-24T07:07:11.672Z,76.7
2018-04-24T07:08:13.202Z,76.3
2018-04-24T07:09:14.719Z,75.7
2018-04-24T07:10:16.321Z,76.5
2018-04-24T07:11:18.034Z,75.0
2018-04-24T07:12:19.786Z,76.2
2018-04-24T07:13:21.440Z,75.5
2018-04-24T07:14:23.105Z,75.6
2018-04-24T07:15:24.815Z,75.5
2018-04-24T07:16:26.420Z,74.1
2018-04-24T07:17:28.128Z,74.0
2018-04-24T07:18:29.834Z,73.9
2018-04-24T07:19:31.508Z,74.1
2018-04-24T07:20:33.143Z,74.8
2018-04-24T07:21:34.895Z,74.9
2018-04-24T07:22:36.356Z,73.9
2018-04-24T07:23:37.816Z,74.7
2018-04-24T07:24:39.356Z,75.2
2018-04-24T07:25:41.028Z,74.5
2018-04-24T07:26:42.749Z,75.0
2018-04-24T07:27:44.498Z,75.1
2018-04-24T07:28:46.136Z,74.3
2018-04-24T07:29:47.664Z,74.9
2018-04-24T07:30:49.078Z,74.9
2018-04-24T07:31:50.738Z,75.1
2018-04-24T07:32:52.173Z,76.1
2018-04-24T07:33:53.685Z,76.0
2018-04-24T07:34:55.135Z,75.6
2018-04-24T07:35:56.848Z,74.7
2018-04-24T07:36:58.557Z,74.1
2018-04-24T07:38:00.222Z,73.7
2018-04-24T07:39:01.852Z,72.8
2018-04-24T07:40:03.498Z,73.8
2018-04-24T07:41:05.161Z,73.2
2018-04-24T07:42:06.813Z,72.6
2018-04-24T07:43:08.445Z,72.8
2018-04-24T07:44:10.181Z,72.9
2018-04-24T07:45:11.605Z,72.9
2018-04-24T07:46:13.078Z,73.5
2018-04-24T07:47:14.538Z,73.7
2018-04-24T07:48:16.037Z,74.5
2018-04-24T07:49:17.489Z,74.7
2018-04-24T07:50:19.128Z,74.1
2018-04-24T07:51:20.648Z,73.7
2018-04-24T07:52:22.069Z,73.9
2018-04-24T07:53:23.496Z,73.7
2018-04-24T07:54:24.918Z,74.0
2018-04-24T07:55:26.406Z,74.8
2018-04-24T07:56:27.902Z,74.9
2018-04-24T07:57:29.328Z,75.5
2018-04-24T07:58:30.783Z,74.5
2018-04-24T07:59:32.251Z,75.5
2018-04-24T08:00:33.692Z,75.8
2018-04-24T08:01:35.138Z,75.4
2018-04-24T08:02:36.589Z,75.9
2018-04-24T08:03:38.074Z,75.3
2018-04-24T08:04:39.508Z,75.3
2018-04-24T08:05:40.982Z,75.2
2018-04-24T08:06:42.456Z,74.9
2018-04-24T08:07:44.169Z,75.6
2018-04-24T08:08:45.948Z,75.6
2018-04-24T08:09:47.480Z,75.5
2018-04-24T08:10:48.897Z,74.3
2018-04-24T08:11:50.467Z,74.1
2018-04-24T08:12:52.169Z,74.5
2018-04-24T08:13:53.823Z,74.4
2018-04-24T08:14:55.571Z,74.5
2018-04-24T08:15:57.033Z,73.7
2018-04-24T08:16:58.500Z,73.0
2018-04-24T08:17:59.930Z,73.6
2018-04-24T08:19:01.455Z,73.2
2018-04-24T08:20:02.912Z,73.3
2018-04-24T08:21:04.362Z,73.3
2018-04-24T08:22:05.832Z,73.2
2018-04-24T08:23:07.294Z,73.5
2018-04-24T08:24:08.754Z,73.5
2018-04-24T08:25:10.475Z,73.2
2018-04-24T08:26:12.202Z,74.1
2018-04-24T08:27:13.984Z,74.1
2018-04-24T08:28:15.710Z,73.7
2018-04-24T08:29:17.383Z,74.1
2018-04-24T08:30:19.245Z,73.3
2018-04-24T08:31:20.884Z,73.4
2018-04-24T08:32:22.496Z,73.6
2018-04-24T08:33:24.287Z,73.4
2018-04-24T08:34:25.948Z,73.7
2018-04-24T08:35:27.595Z,73.7
2018-04-24T08:36:29.237Z,73.7
2018-04-24T08:37:30.894Z,74.2
2018-04-24T08:38:32.502Z,72.9
2018-04-24T08:39:34.249Z,72.3
2018-04-24T08:40:35.958Z,72.6
2018-04-24T08:41:37.342Z,72.8
2018-04-24T08:42:38.831Z,71.4
2018-04-24T08:43:40.405Z,71.7
2018-04-24T08:44:41.902Z,72.3
2018-04-24T08:45:43.336Z,72.8
2018-04-24T08:46:44.848Z,72.2
2018-04-24T08:47:46.283Z,72.3
2018-04-24T08:48:47.734Z,71.8
2018-04-24T08:49:49.149Z,72.2
2018-04-24T08:50:50.554Z,71.0
2018-04-24T08:51:51.980Z,71.6
2018-04-24T08:52:53.437Z,71.0
2018-04-24T08:53:54.941Z,70.8
2018-04-24T08:54:56.440Z,70.5
2018-04-24T08:55:57.895Z,69.9
2018-04-24T08:56:59.350Z,70.0
2018-04-24T08:58:00.879Z,69.5
2018-04-24T08:59:02.294Z,69.7
2018-04-24T09:00:03.803Z,69.5
2018-04-24T09:01:05.221Z,69.5
2018-04-24T09:02:06.764Z,70.0
2018-04-24T09:03:08.180Z,70.0
2018-04-24T09:04:09.604Z,69.2
2018-04-24T09:05:11.055Z,68.4
2018-04-24T09:06:12.499Z,68.1
2018-04-24T09:07:14.022Z,67.1
2018-04-24T09:08:15.483Z,67.5
2018-04-24T09:09:16.918Z,66.7
2018-04-24T09:10:18.341Z,67.7
2018-04-24T09:11:19.833Z,67.2
2018-04-24T09:12:21.260Z,67.3
2018-04-24T09:13:22.745Z,67.4
2018-04-24T09:14:24.273Z,66.8
2018-04-24T09:15:25.928Z,66.9
2018-04-24T09:16:27.647Z,67.6
2018-04-24T09:17:29.068Z,68.0
2018-04-24T09:18:30.512Z,67.6
2018-04-24T09:19:31.996Z,66.1
2018-04-24T09:20:33.438Z,66.4
2018-04-24T09:21:34.886Z,66.2
2018-04-24T09:22:36.331Z,65.6
2018-04-24T09:23:37.795Z,65.6
2018-04-24T09:24:39.320Z,66.1
2018-04-24T09:25:40.784Z,66.0
2018-04-24T09:26:42.391Z,65.1
2018-04-24T09:27:44.022Z,65.3
2018-04-24T09:28:45.794Z,65.4
2018-04-24T09:29:47.547Z,64.9
2018-04-24T09:30:49.168Z,65.3
2018-04-24T09:31:50.624Z,64.5
2018-04-24T09:32:52.064Z,64.7
2018-04-24T09:33:53.560Z,64.8
2018-04-24T09:34:54.994Z,66.1
2018-04-24T09:35:56.448Z,65.3
2018-04-24T09:36:58.021Z,65.6
2018-04-24T09:37:59.656Z,65.7
2018-04-24T09:39:01.416Z,66.4
2018-04-24T09:40:03.064Z,66.7
2018-04-24T09:41:04.782Z,66.4
2018-04-24T09:42:06.478Z,66.5
2018-04-24T09:43:08.108Z,66.6
2018-04-24T09:44:09.691Z,65.6
2018-04-24T09:45:11.094Z,66.1
2018-04-24T09:46:12.641Z,65.7
2018-04-24T09:47:14.114Z,64.9
2018-04-24T09:48:15.568Z,64.8
2018-04-24T09:49:17.041Z,64.8
2018-04-24T09:50:18.705Z,66.0
2018-04-24T09:51:20.211Z,66.1
2018-04-24T09:52:21.681Z,67.0
2018-04-24T09:53:23.085Z,65.8
2018-04-24T09:54:24.559Z,65.7
2018-04-24T09:55:26.004Z,64.5
2018-04-24T09:56:27.482Z,65.8
2018-04-24T09:57:29.070Z,64.9
2018-04-24T09:58:30.734Z,65.2
2018-04-24T09:59:32.475Z,65.3
2018-04-24T10:00:34.183Z,65.4
2018-04-24T10:01:35.803Z,64.8
2018-04-24T10:02:37.327Z,64.7
2018-04-24T10:03:38.765Z,65.1
2018-04-24T10:04:40.254Z,64.5
2018-04-24T10:05:41.944Z,66.1
2018-04-24T10:06:43.407Z,66.1
2018-04-24T10:07:44.926Z,66.6
2018-04-24T10:08:46.343Z,66.7
2018-04-24T10:09:47.892Z,67.3
2018-04-24T10:10:49.579Z,67.5
2018-04-24T10:11:51.183Z,67.3
2018-04-24T10:12:52.658Z,67.2
2018-04-24T10:13:54.158Z,67.8
2018-04-24T10:14:55.612Z,68.0
2018-04-24T10:15:57.075Z,68.7
2018-04-24T10:16:58.644Z,68.7
2018-04-24T10:18:00.270Z,67.3
2018-04-24T10:19:01.987Z,68.1
2018-04-24T10:20:03.646Z,69.4
2018-04-24T10:21:05.394Z,69.9
2018-04-24T10:22:07.071Z,70.0
2018-04-24T10:23:08.548Z,70.6
2018-04-24T10:24:10.087Z,71.2
2018-04-24T10:25:11.730Z,70.8
2018-04-24T10:26:13.426Z,70.7
2018-04-24T10:27:15.101Z,71.4
2018-04-24T10:28:16.559Z,71.4
2018-04-24T10:29:18.045Z,70.9
2018-04-24T10:30:19.492Z,70.7
2018-04-24T10:31:21.035Z,70.5
2018-04-24T10:32:22.603Z,70.3
2018-04-24T10:33:24.307Z,70.3
2018-04-24T10:34:25.774Z,70.8
2018-04-24T10:35:27.210Z,71.4
2018-04-24T10:36:28.870Z,70.8
2018-04-24T10:37:30.656Z,71.4
2018-04-24T10:38:32.307Z,71.1
2018-04-24T10:39:33.917Z,71.3
2018-04-24T10:40:35.479Z,69.8
2018-04-24T10:41:36.907Z,69.6
2018-04-24T10:42:38.450Z,69.8
2018-04-24T10:43:40.162Z,69.9
2018-04-24T10:44:41.816Z,69.4
2018-04-24T10:45:43.526Z,70.1
2018-04-24T10:46:45.223Z,69.9
2018-04-24T10:47:46.851Z,71.2
2018-04-24T10:48:48.517Z,71.2
2018-04-24T10:49:50.276Z,71.1
2018-04-24T10:50:51.960Z,71.0
2018-04-24T10:51:53.679Z,71.8
2018-04-24T10:52:55.221Z,71.7
2018-04-24T10:53:56.735Z,71.2
2018-04-24T10:54:58.195Z,70.4
2018-04-24T10:55:59.718Z,70.2
2018-04-24T10:57:01.200Z,70.1
2018-04-24T10:58:02.591Z,70.4
2018-04-24T10:59:04.038Z,69.5
2018-04-24T11:00:05.549Z,69.7
2018-04-24T11:01:07.297Z,69.8
2018-04-24T11:02:09.029Z,70.8
2018-04-24T11:03:10.683Z,72.2
2018-04-24T11:04:12.373Z,72.8
2018-04-24T11:05:13.890Z,72.7
2018-04-24T11:06:15.363Z,72.9
2018-04-24T11:07:16.798Z,73.0
2018-04-24T11:08:18.277Z,73.2
2018-04-24T11:09:19.963Z,72.4
2018-04-24T11:10:21.669Z,73.0
2018-04-24T11:11:23.324Z,73.1
2018-04-24T11:12:25.004Z,73.3
2018-04-24T11:13:26.657Z,71.9
2018-04-24T11:14:28.300Z,72.6
2018-04-24T11:15:29.811Z,72.5
2018-04-24T11:16:31.375Z,72.3
2018-04-24T11:17:32.817Z,72.3
2018-04-24T11:18:34.337Z,72.4
2018-04-24T11:19:35.733Z,72.3
2018-04-24T11:20:37.465Z,71.9
2018-04-24T11:21:39.137Z,72.2
2018-04-24T11:22:40.817Z,72.4
2018-04-24T11:23:42.460Z,72.4
2018-04-24T11:24:44.188Z,72.6
2018-04-24T11:25:45.848Z,72.7
2018-04-24T11:26:47.559Z,73.1
2018-04-24T11:27:49.130Z,73.1
2018-04-24T11:28:50.829Z,72.9
2018-04-24T11:29:52.549Z,72.6
2018-04-24T11:30:54.190Z,73.9
2018-04-24T11:31:55.839Z,72.9
2018-04-24T11:32:57.435Z,74.5
2018-04-24T11:33:58.931Z,74.8
2018-04-24T11:35:00.392Z,74.3
2018-04-24T11:36:01.944Z,74.2
2018-04-24T11:37:03.549Z,74.9
2018-04-24T11:38:05.048Z,75.4
2018-04-24T11:39:06.764Z,75.1
2018-04-24T11:40:08.324Z,75.4
2018-04-24T11:41:10.059Z,74.1
2018-04-24T11:42:11.759Z,73.8
2018-04-24T11:43:13.275Z,74.1
2018-04-24T11:44:14.799Z,74.1
2018-04-24T11:45:16.484Z,73.6
2018-04-24T11:46:18.173Z,73.8
2018-04-24T11:47:19.865Z,74.3
2018-04-24T11:48:21.566Z,73.9
2018-04-24T11:49:23.278Z,74.7
2018-04-24T11:50:25.007Z,74.6
2018-04-24T11:51:26.681Z,75.1
2018-04-24T11:52:28.309Z,76.0
2018-04-24T11:53:29.819Z,75.4
2018-04-24T11:54:31.493Z,74.9
2018-04-24T11:55:32.958Z,75.0
2018-04-24T11:56:34.504Z,74.7
2018-04-24T11:57:35.946Z,74.6
2018-04-24T11:58:37.441Z,74.2
2018-04-24T11:59:38.934Z,73.9
2018-04-24T12:00:40.544Z,74.6
2018-04-24T12:01:42.014Z,74.8
2018-04-24T12:02:43.477Z,75.2
2018-04-24T12:03:44.947Z,74.9
2018-04-24T12:04:46.392Z,74.3
2018-04-24T12:05:47.835Z,74.1
2018-04-24T12:06:49.315Z,74.1
2018-04-24T12:07:50.746Z,73.9
2018-04-24T12:08:52.170Z,73.8
2018-04-24T12:09:53.709Z,73.5
2018-04-24T12:10:55.073Z,73.9
2018-04-24T12:11:56.543Z,74.0
2018-04-24T12:12:58.002Z,73.7
2018-04-24T12:13:59.484Z,73.5
2018-04-24T12:15:00.960Z,72.8
2018-04-24T12:16:02.387Z,72.7
2018-04-24T12:17:03.817Z,72.6
2018-04-24T12:18:05.280Z,71.8
2018-04-24T12:19:06.757Z,72.3
2018-04-24T12:20:08.169Z,71.8
2018-04-24T12:21:09.616Z,71.7
2018-04-24T12:22:11.024Z,72.5
2018-04-24T12:23:12.439Z,72.7
2018-04-24T12:24:13.887Z,73.5
2018-04-24T12:25:15.423Z,73.5
2018-04-24T12:26:16.878Z,73.6
2018-04-24T12:27:18.412Z,73.9
2018-04-24T12:28:19.875Z,73.0
2018-04-24T12:29:21.551Z,72.3
2018-04-24T12:30:23.206Z,72.6
2018-04-24T12:31:24.854Z,72.2
2018-04-24T12:32:26.545Z,72.9
2018-04-24T12:33:28.202Z,73.3
2018-04-24T12:34:29.887Z,72.7
2018-04-24T12:35:31.568Z,70.6
2018-04-24T12:36:33.283Z,71.4
2018-04-24T12:37:35.045Z,71.2
2018-04-24T12:38:36.686Z,70.9
2018-04-24T12:39:38.363Z,70.9
2018-04-24T12:40:39.996Z,70.7
2018-04-24T12:41:41.723Z,71.2
2018-04-24T12:42:43.435Z,71.9
2018-04-24T12:43:45.109Z,72.3
2018-04-24T12:44:46.838Z,72.2
2018-04-24T12:45:48.350Z,71.7
2018-04-24T12:46:49.794Z,72.5
2018-04-24T12:47:51.232Z,71.7
2018-04-24T12:48:52.702Z,72.3
2018-04-24T12:49:54.165Z,72.5
2018-04-24T12:50:55.629Z,72.0
2018-04-24T12:51:57.167Z,72.6
2018-04-24T12:52:58.685Z,72.3
2018-04-24T12:54:00.108Z,72.8
2018-04-24T12:55:01.706Z,72.5
2018-04-24T12:56:03.408Z,72.4
2018-04-24T12:57:05.082Z,72.0
2018-04-24T12:58:06.774Z,71.0
2018-04-24T12:59:08.435Z,71.6
2018-04-24T13:00:10.085Z,72.5
2018-04-24T13:01:11.773Z,72.5
2018-04-24T13:02:13.314Z,72.1
2018-04-24T13:03:14.808Z,73.1
2018-04-24T13:04:16.212Z,72.6
2018-04-24T13:05:17.723Z,72.6
2018-04-24T13:06:19.191Z,72.8
2018-04-24T13:07:20.613Z,73.8
2018-04-24T13:08:22.056Z,73.5
2018-04-24T13:09:23.509Z,73.4
2018-04-24T13:10:24.932Z,72.8
2018-04-24T13:11:26.396Z,73.0
2018-04-24T13:12:27.848Z,73.2
2018-04-24T13:13:29.338Z,74.0
2018-04-24T13:14:30.731Z,73.7
2018-04-24T13:15:32.181Z,73.0
2018-04-24T13:16:33.617Z,72.8
2018-04-24T13:17:35.071Z,72.6
2018-04-24T13:18:36.596Z,73.2
2018-04-24T13:19:37.939Z,72.7
2018-04-24T13:20:39.414Z,72.9
2018-04-24T13:21:40.858Z,73.2
2018-04-24T13:22:42.311Z,72.8
2018-04-24T13:23:43.807Z,72.6
2018-04-24T13:24:45.300Z,72.5
2018-04-24T13:25:46.765Z,72.5
2018-04-24T13:26:48.214Z,72.3
2018-04-24T13:27:49.965Z,72.3
2018-04-24T13:28:51.620Z,72.4
2018-04-24T13:29:53.305Z,72.5
2018-04-24T13:30:54.949Z,72.6
2018-04-24T13:31:56.674Z,72.1
2018-04-24T13:32:58.217Z,72.9
2018-04-24T13:33:59.915Z,71.7
2018-04-24T13:35:01.573Z,71.0
2018-04-24T13:36:03.228Z,71.5
2018-04-24T13:37:04.970Z,71.0
2018-04-24T13:38:06.652Z,70.6
2018-04-24T13:39:08.273Z,70.8
2018-04-24T13:40:10.000Z,70.8